createdAt,value
2023-01-11T00:00:02.526Z,100.00
2023-01-11T00:03:02.132Z,100.00
2023-01-11T00:05:30.504Z,100.00
2023-01-11T00:07:58.990Z,100.00
2023-01-11T00:10:27.142Z,100.00
2023-01-11T00:12:54.944Z,100.00
2023-01-11T00:15:22.750Z,100.00
2023-01-11T00:17:50.582Z,100.00
2023-01-11T00:20:19.465Z,100.00
2023-01-11T00:22:47.326Z,100.00
2023-01-11T00:25:15.159Z,100.00
2023-01-11T00:27:42.945Z,100.00
2023-01-11T00:30:11.843Z,100.00
2023-01-11T00:32:39.927Z,100.00
2023-01-11T00:35:09.573Z,100.00
2023-01-11T00:37:38.247Z,100.00
2023-01-11T00:40:07.865Z,100.00
2023-01-11T00:42:54.170Z,100.00
2023-01-11T00:45:40.873Z,100.00
2023-01-11T00:48:10.760Z,100.00
2023-01-11T00:50:41.372Z,100.00
2023-01-11T00:53:09.787Z,100.00
2023-01-11T00:55:37.703Z,100.00
2023-01-11T00:58:05.698Z,100.00
2023-01-11T01:00:33.640Z,100.00
2023-01-11T01:03:01.528Z,100.00
2023-01-11T01:05:29.570Z,100.00
2023-01-11T01:07:57.463Z,100.00
2023-01-11T01:10:25.719Z,100.00
2023-01-11T01:13:12.092Z,100.00
2023-01-11T01:15:40.182Z,100.00
2023-01-11T01:18:08.144Z,100.00
2023-01-11T01:20:36.128Z,100.00
2023-01-11T01:23:04.022Z,100.00
2023-01-11T01:25:32.092Z,100.00
2023-01-11T01:28:00.107Z,100.00
2023-01-11T01:30:28.111Z,100.00
2023-01-11T01:32:56.018Z,100.00
2023-01-11T01:35:23.971Z,100.00
2023-01-11T01:37:51.871Z,100.00
2023-01-11T01:40:19.951Z,100.00
2023-01-11T01:42:47.781Z,100.00
2023-01-11T01:45:24.768Z,100.00
2023-01-11T01:48:02.380Z,100.00
2023-01-11T01:50:43.446Z,100.00
2023-01-11T01:53:16.198Z,100.00
2023-01-11T01:55:49.169Z,100.00
2023-01-11T01:58:21.773Z,100.00
2023-01-11T02:00:50.035Z,100.00
2023-01-11T02:03:23.275Z,100.00
2023-01-11T02:05:53.770Z,100.00
2023-01-11T02:08:34.524Z,100.00
2023-01-11T02:11:03.877Z,100.00
2023-01-11T02:13:46.209Z,100.00
2023-01-11T02:16:14.234Z,100.00
2023-01-11T02:18:42.232Z,100.00
2023-01-11T02:21:25.696Z,100.00
2023-01-11T02:24:15.714Z,100.00
2023-01-11T02:27:08.224Z,100.00
2023-01-11T02:30:03.492Z,100.00
2023-01-11T02:33:15.677Z,100.00
2023-01-11T02:36:08.636Z,100.00
2023-01-11T02:38:41.996Z,100.00
2023-01-11T02:41:48.909Z,100.00
2023-01-11T02:44:41.530Z,100.00
2023-01-11T02:47:18.441Z,99.93
2023-01-11T02:49:53.871Z,99.82
2023-01-11T02:52:31.273Z,99.80
2023-01-11T02:55:01.287Z,99.83
2023-01-11T02:57:32.860Z,99.96
2023-01-11T03:00:02.279Z,99.99
2023-01-11T03:02:30.199Z,99.98
2023-01-11T03:04:58.074Z,100.00
2023-01-11T03:08:00.798Z,100.00
2023-01-11T03:10:40.730Z,100.00
2023-01-11T03:13:29.145Z,100.00
2023-01-11T03:16:22.170Z,100.00
2023-01-11T03:19:32.471Z,100.00
2023-01-11T03:22:18.770Z,100.00
2023-01-11T03:24:57.832Z,100.00
2023-01-11T03:27:37.002Z,100.00
2023-01-11T03:30:15.930Z,99.98
2023-01-11T03:32:48.889Z,99.95
2023-01-11T03:35:35.519Z,99.95
2023-01-11T03:38:30.669Z,99.92
2023-01-11T03:41:07.994Z,99.64
2023-01-11T03:43:40.493Z,99.71
2023-01-11T03:46:13.451Z,99.53
2023-01-11T03:48:57.803Z,99.29
2023-01-11T03:51:29.948Z,99.36
2023-01-11T03:54:00.904Z,99.17
2023-01-11T03:56:43.746Z,99.36
2023-01-11T03:59:12.731Z,99.19
2023-01-11T04:01:40.670Z,99.49
2023-01-11T04:04:08.583Z,99.56
2023-01-11T04:06:38.178Z,99.80
2023-01-11T04:09:06.820Z,99.86
2023-01-11T04:11:34.711Z,99.54
2023-01-11T04:14:02.557Z,99.50
2023-01-11T04:16:30.627Z,99.26
2023-01-11T04:18:58.638Z,99.15
2023-01-11T04:21:26.706Z,99.19
2023-01-11T04:23:55.815Z,99.18
2023-01-11T04:26:23.694Z,99.18
2023-01-11T04:28:54.109Z,99.53
2023-01-11T04:31:22.350Z,99.22
2023-01-11T04:33:50.280Z,99.28
2023-01-11T04:36:18.260Z,99.03
2023-01-11T04:38:46.100Z,99.18
2023-01-11T04:41:32.492Z,99.24
2023-01-11T04:44:00.572Z,99.05
2023-01-11T04:46:28.475Z,98.91
2023-01-11T04:48:56.518Z,98.85
2023-01-11T04:51:24.732Z,98.85
2023-01-11T04:53:52.833Z,99.02
2023-01-11T04:56:20.787Z,99.05
2023-01-11T04:58:48.731Z,98.91
2023-01-11T05:01:18.853Z,98.83
2023-01-11T05:03:46.993Z,98.85
2023-01-11T05:06:15.838Z,98.92
2023-01-11T05:08:47.540Z,98.87
2023-01-11T05:11:16.930Z,98.83
2023-01-11T05:13:45.321Z,98.89
2023-01-11T05:16:23.749Z,98.81
2023-01-11T05:18:54.827Z,98.93
2023-01-11T05:21:32.693Z,98.39
2023-01-11T05:24:02.818Z,98.36
2023-01-11T05:26:34.891Z,98.47
2023-01-11T05:29:06.760Z,98.40
2023-01-11T05:31:37.160Z,98.39
2023-01-11T05:34:07.126Z,98.23
2023-01-11T05:36:36.129Z,98.24
2023-01-11T05:39:05.081Z,98.20
2023-01-11T05:41:34.358Z,98.45
2023-01-11T05:44:21.059Z,98.39
2023-01-11T05:46:49.393Z,98.23
2023-01-11T05:49:17.515Z,98.29
2023-01-11T05:51:45.435Z,98.39
2023-01-11T05:54:14.954Z,98.55
2023-01-11T05:56:43.025Z,98.45
2023-01-11T05:59:11.210Z,98.33
2023-01-11T06:01:39.744Z,98.36
2023-01-11T06:04:08.584Z,98.22
2023-01-11T06:06:37.137Z,98.20
2023-01-11T06:09:05.221Z,98.32
2023-01-11T06:11:33.168Z,98.46
2023-01-11T06:14:01.278Z,98.27
2023-01-11T06:16:29.364Z,98.49
2023-01-11T06:18:57.444Z,98.54
2023-01-11T06:21:25.598Z,98.52
2023-01-11T06:23:54.024Z,98.70
2023-01-11T06:26:22.931Z,98.66
2023-01-11T06:28:51.365Z,98.76
2023-01-11T06:31:19.891Z,98.82
2023-01-11T06:33:48.299Z,98.93
2023-01-11T06:36:16.959Z,99.03
2023-01-11T06:38:45.247Z,98.80
2023-01-11T06:41:13.571Z,99.01
2023-01-11T06:43:42.183Z,98.95
2023-01-11T06:46:12.824Z,98.90
2023-01-11T06:48:41.052Z,98.76
2023-01-11T06:51:12.066Z,98.79
2023-01-11T06:53:42.209Z,98.98
2023-01-11T06:56:13.975Z,98.91
2023-01-11T06:58:41.950Z,98.87
2023-01-11T07:01:10.064Z,99.03
2023-01-11T07:03:39.309Z,98.97
2023-01-11T07:06:07.474Z,99.07
2023-01-11T07:08:35.570Z,99.17
2023-01-11T07:11:04.093Z,98.36
2023-01-11T07:13:32.108Z,98.36
2023-01-11T07:16:00.082Z,98.29
2023-01-11T07:18:31.315Z,97.99
2023-01-11T07:20:59.278Z,97.92
2023-01-11T07:23:27.229Z,97.86
2023-01-11T07:25:55.530Z,97.96
2023-01-11T07:28:23.465Z,97.95
2023-01-11T07:30:58.591Z,98.10
2023-01-11T07:33:28.256Z,98.28
2023-01-11T07:35:56.589Z,98.32
2023-01-11T07:38:24.503Z,98.24
2023-01-11T07:40:52.593Z,98.44
2023-01-11T07:43:23.475Z,98.49
2023-01-11T07:45:52.319Z,98.52
2023-01-11T07:48:26.763Z,98.65
2023-01-11T07:50:55.328Z,98.84
2023-01-11T07:53:26.364Z,98.84
2023-01-11T07:55:57.680Z,99.11
2023-01-11T07:58:25.690Z,98.96
2023-01-11T08:00:53.637Z,99.00
2023-01-11T08:03:21.597Z,99.11
2023-01-11T08:05:51.762Z,99.21
2023-01-11T08:08:20.512Z,99.48
2023-01-11T08:11:09.156Z,99.74
2023-01-11T08:13:55.826Z,99.52
2023-01-11T08:16:23.981Z,99.47
2023-01-11T08:18:53.163Z,99.57
2023-01-11T08:21:24.261Z,99.50
2023-01-11T08:23:59.123Z,99.55
2023-01-11T08:26:27.986Z,99.60
2023-01-11T08:28:56.203Z,99.68
2023-01-11T08:31:25.914Z,99.68
2023-01-11T08:33:54.061Z,99.68
2023-01-11T08:36:22.043Z,99.83
2023-01-11T08:38:54.622Z,99.58
2023-01-11T08:41:24.138Z,99.39
2023-01-11T08:43:52.836Z,99.36
2023-01-11T08:46:20.875Z,99.49
2023-01-11T08:48:49.037Z,99.40
2023-01-11T08:51:18.199Z,99.34
2023-01-11T08:53:46.124Z,99.35
2023-01-11T08:56:14.040Z,99.27
2023-01-11T08:58:42.053Z,99.37
2023-01-11T09:01:10.145Z,99.65
2023-01-11T09:03:38.075Z,99.60
2023-01-11T09:06:06.157Z,99.50
2023-01-11T09:08:33.995Z,99.05
2023-01-11T09:11:01.894Z,99.25
2023-01-11T09:13:29.869Z,99.19
2023-01-11T09:15:58.207Z,99.11
2023-01-11T09:18:27.301Z,98.80
2023-01-11T09:20:55.390Z,98.51
2023-01-11T09:23:23.461Z,98.58
2023-01-11T09:25:51.560Z,98.34
2023-01-11T09:28:19.574Z,98.56
2023-01-11T09:30:47.456Z,98.36
2023-01-11T09:33:15.378Z,97.91
2023-01-11T09:35:46.257Z,97.98
2023-01-11T09:38:14.102Z,97.83
2023-01-11T09:41:20.577Z,97.82
2023-01-11T09:44:16.470Z,97.89
2023-01-11T09:46:51.410Z,97.99
2023-01-11T09:49:24.787Z,97.83
2023-01-11T09:52:13.277Z,97.74
2023-01-11T09:54:41.479Z,97.60
2023-01-11T09:57:30.943Z,97.63
2023-01-11T10:00:05.172Z,97.41
2023-01-11T10:03:01.247Z,97.39
2023-01-11T10:05:38.330Z,97.32
2023-01-11T10:18:26.161Z,98.24
2023-01-11T10:18:31.573Z,98.17
2023-01-11T10:20:40.938Z,98.33
2023-01-11T10:23:41.775Z,97.94
2023-01-11T10:26:24.309Z,97.86
2023-01-11T10:29:16.307Z,97.96
2023-01-11T10:32:13.663Z,97.94
2023-01-11T10:35:06.172Z,98.12
2023-01-11T10:37:54.612Z,98.05
2023-01-11T10:40:57.209Z,98.11
2023-01-11T10:43:26.990Z,98.42
2023-01-11T10:46:02.068Z,98.40
2023-01-11T10:48:50.958Z,98.16
2023-01-11T10:51:24.705Z,97.94
2023-01-11T10:54:18.045Z,97.52
2023-01-11T10:57:03.017Z,97.09
2023-01-11T10:59:50.773Z,96.36
2023-01-11T11:02:30.984Z,95.44
2023-01-11T11:05:05.512Z,95.67
2023-01-11T11:07:43.977Z,95.78
2023-01-11T11:10:19.416Z,95.56
2023-01-11T11:13:05.989Z,95.07
2023-01-11T11:15:33.889Z,94.32
2023-01-11T11:18:01.851Z,94.61
2023-01-11T11:20:33.075Z,94.22
2023-01-11T11:23:01.367Z,94.37
2023-01-11T11:25:43.385Z,94.54
2023-01-11T11:28:14.507Z,94.62
2023-01-11T11:30:43.367Z,94.41
2023-01-11T11:33:17.258Z,93.71
2023-01-11T11:36:06.683Z,94.00
2023-01-11T11:38:40.632Z,94.47
2023-01-11T11:41:09.773Z,94.43
2023-01-11T11:43:43.631Z,94.78
2023-01-11T11:46:18.784Z,95.09
2023-01-11T11:49:16.910Z,94.97
2023-01-11T11:51:47.709Z,94.95
2023-01-11T11:54:19.061Z,95.03
2023-01-11T11:56:47.522Z,95.07
2023-01-11T11:59:20.253Z,95.02
2023-01-11T12:02:03.694Z,94.36
2023-01-11T12:04:36.527Z,94.60
2023-01-11T12:07:16.957Z,95.24
2023-01-11T12:09:52.379Z,94.91
2023-01-11T12:12:25.568Z,95.02
2023-01-11T12:15:16.223Z,95.13
2023-01-11T12:17:44.257Z,95.66
2023-01-11T12:20:21.367Z,96.67
2023-01-11T12:23:14.671Z,97.03
2023-01-11T12:26:22.822Z,97.44
2023-01-11T12:29:09.812Z,98.08
2023-01-11T12:32:01.069Z,98.10
2023-01-11T12:34:34.494Z,98.21
2023-01-11T12:37:12.346Z,97.71
2023-01-11T12:39:58.204Z,97.78
2023-01-11T12:42:47.916Z,97.41
2023-01-11T12:45:30.250Z,97.12
2023-01-11T12:48:17.083Z,97.52
2023-01-11T12:50:47.772Z,97.94
2023-01-11T12:53:43.818Z,98.36
2023-01-11T12:56:21.072Z,98.88
2023-01-11T12:59:16.974Z,99.21
2023-01-11T13:01:59.218Z,99.74
2023-01-11T13:04:40.029Z,99.91
2023-01-11T13:07:35.507Z,99.96
2023-01-11T13:10:12.923Z,100.00
2023-01-11T13:12:54.305Z,100.00
2023-01-11T13:15:42.245Z,100.00
2023-01-11T13:18:19.110Z,100.00
2023-01-11T13:21:01.878Z,100.00
2023-01-11T13:23:44.585Z,100.00
2023-01-11T13:26:24.497Z,100.00
2023-01-11T13:29:05.099Z,100.00
2023-01-11T13:31:35.627Z,100.00
2023-01-11T13:34:12.710Z,100.00
2023-01-11T13:36:45.807Z,100.00
2023-01-11T13:39:28.630Z,100.00
2023-01-11T13:42:05.520Z,100.00
2023-01-11T13:44:46.524Z,100.00
2023-01-11T13:47:25.813Z,100.00
2023-01-11T13:50:00.639Z,100.00
2023-01-11T13:52:28.652Z,100.00
2023-01-11T13:55:26.487Z,100.00
2023-01-11T13:58:06.698Z,100.00
2023-01-11T14:00:49.528Z,100.00
2023-01-11T14:03:39.470Z,100.00
2023-01-11T14:06:23.295Z,100.00
2023-01-11T14:09:09.651Z,100.00
2023-01-11T14:11:58.617Z,100.00
2023-01-11T14:14:45.388Z,100.00
2023-01-11T14:17:31.605Z,100.00
2023-01-11T14:20:09.840Z,100.00
2023-01-11T14:23:00.143Z,100.00
2023-01-11T14:25:35.217Z,100.00
2023-01-11T14:28:32.419Z,100.00
2023-01-11T14:31:07.260Z,100.00
2023-01-11T14:33:35.288Z,100.00
2023-01-11T14:36:12.182Z,100.00
2023-01-11T14:39:08.141Z,100.00
2023-01-11T14:41:51.011Z,100.00
2023-01-11T14:45:13.600Z,100.00
2023-01-11T14:47:44.283Z,100.00
2023-01-11T14:50:27.453Z,100.00
2023-01-11T14:53:01.285Z,100.00
2023-01-11T14:55:35.459Z,100.00
2023-01-11T14:58:32.857Z,100.00
2023-01-11T15:01:04.292Z,100.00
2023-01-11T15:03:42.286Z,100.00
2023-01-11T15:06:17.042Z,100.00
2023-01-11T15:08:56.127Z,100.00
2023-01-11T15:11:33.527Z,100.00
2023-01-11T15:14:07.481Z,100.00
2023-01-11T15:16:56.517Z,100.00
2023-01-11T15:19:34.467Z,100.00
2023-01-11T15:22:05.945Z,100.00
2023-01-11T15:24:41.880Z,100.00
2023-01-11T15:27:34.005Z,100.00
2023-01-11T15:30:03.375Z,100.00
2023-01-11T15:32:44.060Z,100.00
2023-01-11T15:35:24.311Z,100.00
2023-01-11T15:37:58.684Z,100.00
2023-01-11T15:40:31.544Z,100.00
2023-01-11T15:43:33.124Z,100.00
2023-01-11T15:46:42.133Z,100.00
2023-01-11T15:49:41.864Z,100.00
2023-01-11T15:52:41.191Z,100.00
2023-01-11T15:55:30.727Z,100.00
2023-01-11T15:58:16.989Z,100.00
2023-01-11T16:01:06.675Z,100.00
2023-01-11T16:04:16.789Z,100.00
2023-01-11T16:06:47.717Z,100.00
2023-01-11T16:09:33.094Z,100.00
2023-01-11T16:12:08.614Z,100.00
2023-01-11T16:15:14.750Z,100.00
2023-01-11T16:17:46.234Z,100.00
2023-01-11T16:20:20.539Z,100.00
2023-01-11T16:23:07.590Z,100.00
2023-01-11T16:25:40.535Z,100.00
2023-01-11T16:28:17.690Z,100.00
2023-01-11T16:30:47.013Z,100.00
2023-01-11T16:33:24.396Z,100.00
2023-01-11T16:36:14.063Z,100.00
2023-01-11T16:39:02.671Z,100.00
2023-01-11T16:41:43.736Z,100.00
2023-01-11T16:44:27.487Z,100.00
2023-01-11T16:47:06.008Z,100.00
2023-01-11T16:49:34.038Z,100.00
2023-01-11T16:52:28.021Z,100.00
2023-01-11T16:55:00.412Z,100.00
2023-01-11T16:57:53.695Z,100.00
2023-01-11T17:00:36.267Z,100.00
2023-01-11T17:03:24.160Z,100.00
2023-01-11T17:06:07.286Z,100.00
2023-01-11T17:08:38.129Z,100.00
2023-01-11T17:11:41.905Z,100.00
2023-01-11T17:14:35.734Z,100.00
2023-01-11T17:17:07.733Z,100.00
2023-01-11T17:19:42.971Z,100.00
2023-01-11T17:22:22.010Z,100.00
2023-01-11T17:24:54.507Z,100.00
2023-01-11T17:27:33.272Z,100.00
2023-01-11T17:30:03.985Z,100.00
2023-01-11T17:32:31.853Z,100.00
2023-01-11T17:35:03.727Z,100.00
2023-01-11T17:37:32.553Z,100.00
2023-01-11T17:40:01.144Z,100.00
2023-01-11T17:42:47.811Z,100.00
2023-01-11T17:45:23.917Z,100.00
2023-01-11T17:47:54.547Z,100.00
2023-01-11T17:50:22.583Z,100.00
2023-01-11T17:52:55.265Z,100.00
2023-01-11T17:55:26.024Z,100.00
2023-01-11T17:58:11.813Z,100.00
2023-01-11T18:00:42.469Z,100.00
2023-01-11T18:03:18.633Z,100.00
2023-01-11T18:05:46.585Z,100.00
2023-01-11T18:08:20.414Z,100.00
2023-01-11T18:10:55.352Z,100.00
2023-01-11T18:13:31.464Z,100.00
2023-01-11T18:15:59.991Z,100.00
2023-01-11T18:18:43.756Z,100.00
2023-01-11T18:21:42.289Z,100.00
2023-01-11T18:24:10.767Z,100.00
2023-01-11T18:26:41.118Z,100.00
2023-01-11T18:29:37.143Z,100.00
2023-01-11T18:32:06.031Z,100.00
2023-01-11T18:34:34.027Z,100.00
2023-01-11T18:37:03.314Z,100.00
2023-01-11T18:39:31.284Z,100.00
2023-01-11T18:42:07.361Z,100.00
2023-01-11T18:44:37.316Z,100.00
2023-01-11T18:47:14.212Z,100.00
2023-01-11T18:49:42.638Z,100.00
2023-01-11T18:52:11.613Z,100.00
2023-01-11T18:54:42.354Z,100.00
2023-01-11T18:57:10.893Z,100.00
2023-01-11T18:59:39.923Z,100.00
2023-01-11T19:02:26.008Z,100.00
2023-01-11T19:04:56.254Z,100.00
2023-01-11T19:07:27.168Z,100.00
2023-01-11T19:09:55.228Z,100.00
2023-01-11T19:12:23.927Z,100.00
2023-01-11T19:14:52.459Z,100.00
2023-01-11T19:17:21.070Z,100.00
2023-01-11T19:19:49.268Z,100.00
2023-01-11T19:22:17.328Z,100.00
2023-01-11T19:24:45.253Z,100.00
2023-01-11T19:27:13.649Z,100.00
2023-01-11T19:29:41.969Z,100.00
2023-01-11T19:32:09.895Z,100.00
2023-01-11T19:34:39.734Z,100.00
2023-01-11T19:37:07.979Z,100.00
2023-01-11T19:39:36.489Z,100.00
2023-01-11T19:42:04.755Z,100.00
2023-01-11T19:44:34.753Z,100.00
2023-01-11T19:47:12.568Z,100.00
2023-01-11T19:49:42.508Z,100.00
2023-01-11T19:52:14.589Z,100.00
2023-01-11T19:54:43.708Z,100.00
2023-01-11T19:57:14.448Z,100.00
2023-01-11T19:59:42.803Z,100.00
2023-01-11T20:02:12.983Z,100.00
2023-01-11T20:04:41.431Z,100.00
2023-01-11T20:07:11.375Z,100.00
2023-01-11T20:09:39.508Z,100.00
2023-01-11T20:12:10.367Z,100.00
2023-01-11T20:14:40.675Z,100.00
2023-01-11T20:17:09.081Z,100.00
2023-01-11T20:19:37.178Z,100.00
2023-01-11T20:22:05.597Z,100.00
2023-01-11T20:24:33.576Z,100.00
2023-01-11T20:27:02.760Z,100.00
2023-01-11T20:29:31.068Z,100.00
2023-01-11T20:32:21.147Z,100.00
2023-01-11T20:34:50.438Z,100.00
2023-01-11T20:37:18.511Z,100.00
2023-01-11T20:39:46.621Z,100.00
2023-01-11T20:42:14.600Z,100.00
2023-01-11T20:44:42.570Z,100.00
2023-01-11T20:47:10.593Z,100.00
2023-01-11T20:49:38.538Z,100.00
2023-01-11T20:52:06.512Z,100.00
2023-01-11T20:54:34.511Z,100.00
2023-01-11T20:57:05.739Z,100.00
2023-01-11T20:59:34.888Z,100.00
2023-01-11T21:02:02.937Z,100.00
2023-01-11T21:04:30.947Z,100.00
2023-01-11T21:06:58.872Z,100.00
2023-01-11T21:09:26.891Z,100.00
2023-01-11T21:11:54.941Z,100.00
2023-01-11T21:14:23.553Z,100.00
2023-01-11T21:16:55.053Z,100.00
2023-01-11T21:19:23.037Z,100.00
2023-01-11T21:21:51.378Z,100.00
2023-01-11T21:24:19.296Z,100.00
2023-01-11T21:26:48.455Z,100.00
2023-01-11T21:29:16.748Z,100.00
2023-01-11T21:31:44.735Z,100.00
2023-01-11T21:34:15.811Z,100.00
2023-01-11T21:36:45.827Z,100.00
2023-01-11T21:39:18.367Z,100.00
2023-01-11T21:42:03.742Z,100.00
2023-01-11T21:44:35.067Z,100.00
2023-01-11T21:47:05.431Z,100.00
2023-01-11T21:49:33.450Z,100.00
2023-01-11T21:52:01.640Z,100.00
2023-01-11T21:54:29.709Z,100.00
2023-01-11T21:56:58.310Z,100.00
2023-01-11T21:59:26.527Z,100.00
2023-01-11T22:01:54.459Z,100.00
2023-01-11T22:04:22.618Z,100.00
2023-01-11T22:06:54.107Z,100.00
2023-01-11T22:09:24.776Z,100.00
2023-01-11T22:11:53.087Z,100.00
2023-01-11T22:14:21.724Z,100.00
2023-01-11T22:16:49.956Z,100.00
2023-01-11T22:19:18.083Z,100.00
2023-01-11T22:21:46.015Z,100.00
2023-01-11T22:24:14.110Z,100.00
2023-01-11T22:26:42.233Z,100.00
2023-01-11T22:29:14.746Z,100.00
2023-01-11T22:31:51.087Z,100.00
2023-01-11T22:34:19.775Z,100.00
2023-01-11T22:36:48.126Z,100.00
2023-01-11T22:39:19.506Z,100.00
2023-01-11T22:41:48.650Z,100.00
2023-01-11T22:44:17.361Z,100.00
2023-01-11T22:46:45.306Z,100.00
2023-01-11T22:49:14.273Z,100.00
2023-01-11T22:51:43.986Z,100.00
2023-01-11T22:54:12.558Z,100.00
2023-01-11T22:56:40.846Z,100.00
2023-01-11T22:59:09.597Z,100.00
2023-01-11T23:01:42.232Z,100.00
2023-01-11T23:04:12.958Z,100.00
2023-01-11T23:06:42.698Z,100.00
2023-01-11T23:09:15.931Z,100.00
2023-01-11T23:12:04.517Z,100.00
2023-01-11T23:14:33.213Z,100.00
2023-01-11T23:17:07.534Z,100.00
2023-01-11T23:19:38.485Z,100.00
2023-01-11T23:22:07.561Z,100.00
2023-01-11T23:24:37.470Z,100.00
2023-01-11T23:27:05.726Z,100.00
2023-01-11T23:29:33.883Z,100.00
2023-01-11T23:32:02.015Z,100.00
2023-01-11T23:34:30.062Z,100.00
2023-01-11T23:36:58.543Z,100.00
2023-01-11T23:39:26.817Z,100.00
2023-01-11T23:42:13.204Z,100.00
2023-01-11T23:44:41.216Z,100.00
2023-01-11T23:47:25.310Z,100.00
2023-01-11T23:50:00.460Z,100.00
2023-01-11T23:52:32.041Z,100.00
2023-01-11T23:55:00.754Z,100.00
2023-01-11T23:57:28.670Z,100.00
2023-01-11T23:59:56.899Z,100.00
